sensor_id;sensor_type;location;lat;lon;timestamp;temperature;humidity
16964;DHT22;8598;50.508;10.436;2022-12-07T00:01:20;1.70;99.90
16964;DHT22;8598;50.508;10.436;2022-12-07T00:03:49;1.70;99.90
16964;DHT22;8598;50.508;10.436;2022-12-07T00:06:16;1.70;99.90
16964;DHT22;8598;50.508;10.436;2022-12-07T00:08:44;1.70;99.90
16964;DHT22;8598;50.508;10.436;2022-12-07T00:11:13;1.70;99.90
16964;DHT22;8598;50.508;10.436;2022-12-07T00:13:42;1.70;99.90
16964;DHT22;8598;50.508;10.436;2022-12-07T00:16:10;1.70;99.90
16964;DHT22;8598;50.508;10.436;2022-12-07T00:18:37;1.70;99.90
16964;DHT22;8598;50.508;10.436;2022-12-07T00:21:06;1.70;99.90
16964;DHT22;8598;50.508;10.436;2022-12-07T00:23:33;1.70;99.90
16964;DHT22;8598;50.508;10.436;2022-12-07T00:26:04;1.70;99.90
16964;DHT22;8598;50.508;10.436;2022-12-07T00:28:31;1.70;99.90
16964;DHT22;8598;50.508;10.436;2022-12-07T00:31:02;1.70;99.90
16964;DHT22;8598;50.508;10.436;2022-12-07T00:33:29;1.70;99.90
16964;DHT22;8598;50.508;10.436;2022-12-07T00:35:56;1.70;99.90
16964;DHT22;8598;50.508;10.436;2022-12-07T00:38:23;1.70;99.90
16964;DHT22;8598;50.508;10.436;2022-12-07T00:40:55;1.70;99.90
16964;DHT22;8598;50.508;10.436;2022-12-07T00:43:22;1.70;99.90
16964;DHT22;8598;50.508;10.436;2022-12-07T00:45:48;1.70;99.90
16964;DHT22;8598;50.508;10.436;2022-12-07T00:48:16;1.70;99.90
16964;DHT22;8598;50.508;10.436;2022-12-07T00:50:43;1.70;99.90
16964;DHT22;8598;50.508;10.436;2022-12-07T00:53:10;1.70;99.90
16964;DHT22;8598;50.508;10.436;2022-12-07T00:55:37;1.70;99.90
16964;DHT22;8598;50.508;10.436;2022-12-07T00:58:04;1.60;99.90
16964;DHT22;8598;50.508;10.436;2022-12-07T01:00:31;1.70;99.90
16964;DHT22;8598;50.508;10.436;2022-12-07T01:02:58;2.70;99.90
16964;DHT22;8598;50.508;10.436;2022-12-07T01:05:26;1.70;99.90
16964;DHT22;8598;50.508;10.436;2022-12-07T01:07:53;1.70;99.90
16964;DHT22;8598;50.508;10.436;2022-12-07T01:10:19;1.70;99.90
16964;DHT22;8598;50.508;10.436;2022-12-07T01:12:46;1.80;99.90
16964;DHT22;8598;50.508;10.436;2022-12-07T01:15:13;1.70;99.90
16964;DHT22;8598;50.508;10.436;2022-12-07T01:17:40;1.70;99.90
16964;DHT22;8598;50.508;10.436;2022-12-07T01:20:07;1.70;99.90
16964;DHT22;8598;50.508;10.436;2022-12-07T01:22:38;1.70;99.90
16964;DHT22;8598;50.508;10.436;2022-12-07T01:25:05;1.70;99.90
16964;DHT22;8598;50.508;10.436;2022-12-07T01:27:32;1.80;99.90
16964;DHT22;8598;50.508;10.436;2022-12-07T01:29:59;1.70;99.90
16964;DHT22;8598;50.508;10.436;2022-12-07T01:32:26;1.70;99.90
16964;DHT22;8598;50.508;10.436;2022-12-07T01:34:53;1.70;99.90
16964;DHT22;8598;50.508;10.436;2022-12-07T01:37:20;1.70;99.90
16964;DHT22;8598;50.508;10.436;2022-12-07T01:39:49;1.70;99.90
16964;DHT22;8598;50.508;10.436;2022-12-07T01:42:17;1.70;99.90
16964;DHT22;8598;50.508;10.436;2022-12-07T01:47:51;1.80;99.90
16964;DHT22;8598;50.508;10.436;2022-12-07T01:50:19;1.80;99.90
16964;DHT22;8598;50.508;10.436;2022-12-07T01:52:48;1.80;99.90
16964;DHT22;8598;50.508;10.436;2022-12-07T01:55:17;1.80;99.90
16964;DHT22;8598;50.508;10.436;2022-12-07T01:57:47;1.80;99.90
16964;DHT22;8598;50.508;10.436;2022-12-07T02:00:16;1.80;99.90
16964;DHT22;8598;50.508;10.436;2022-12-07T02:02:47;1.80;99.90
16964;DHT22;8598;50.508;10.436;2022-12-07T02:05:15;1.90;99.90
16964;DHT22;8598;50.508;10.436;2022-12-07T02:07:43;1.80;99.90
16964;DHT22;8598;50.508;10.436;2022-12-07T02:10:13;1.90;99.90
16964;DHT22;8598;50.508;10.436;2022-12-07T02:12:42;1.80;99.90
16964;DHT22;8598;50.508;10.436;2022-12-07T02:15:10;1.90;99.90
16964;DHT22;8598;50.508;10.436;2022-12-07T02:17:46;1.90;99.90
16964;DHT22;8598;50.508;10.436;2022-12-07T02:20:28;1.90;99.90
16964;DHT22;8598;50.508;10.436;2022-12-07T02:29:12;1.90;99.90
16964;DHT22;8598;50.508;10.436;2022-12-07T02:31:44;1.90;99.90
16964;DHT22;8598;50.508;10.436;2022-12-07T02:34:19;1.90;99.90
16964;DHT22;8598;50.508;10.436;2022-12-07T02:36:52;1.80;99.90
16964;DHT22;8598;50.508;10.436;2022-12-07T02:39:24;1.90;99.90
16964;DHT22;8598;50.508;10.436;2022-12-07T02:41:58;1.90;99.90
16964;DHT22;8598;50.508;10.436;2022-12-07T02:44:30;1.80;99.90
16964;DHT22;8598;50.508;10.436;2022-12-07T02:47:02;1.90;99.90
16964;DHT22;8598;50.508;10.436;2022-12-07T02:49:30;1.90;99.90
16964;DHT22;8598;50.508;10.436;2022-12-07T02:51:58;1.90;99.90
16964;DHT22;8598;50.508;10.436;2022-12-07T02:54:24;1.80;99.90
16964;DHT22;8598;50.508;10.436;2022-12-07T02:56:56;1.90;99.90
16964;DHT22;8598;50.508;10.436;2022-12-07T02:59:40;1.80;99.90
16964;DHT22;8598;50.508;10.436;2022-12-07T03:02:20;1.80;99.90
16964;DHT22;8598;50.508;10.436;2022-12-07T03:04:55;1.90;99.90
16964;DHT22;8598;50.508;10.436;2022-12-07T03:07:33;1.90;99.90
16964;DHT22;8598;50.508;10.436;2022-12-07T03:10:07;1.90;99.90
16964;DHT22;8598;50.508;10.436;2022-12-07T03:12:41;1.90;99.90
16964;DHT22;8598;50.508;10.436;2022-12-07T03:15:16;1.80;99.90
16964;DHT22;8598;50.508;10.436;2022-12-07T03:17:45;1.90;99.90
16964;DHT22;8598;50.508;10.436;2022-12-07T03:20:15;1.80;99.90
16964;DHT22;8598;50.508;10.436;2022-12-07T03:22:45;1.90;99.90
16964;DHT22;8598;50.508;10.436;2022-12-07T03:25:15;1.90;99.90
16964;DHT22;8598;50.508;10.436;2022-12-07T03:27:46;1.90;99.90
16964;DHT22;8598;50.508;10.436;2022-12-07T03:30:19;1.90;99.90
16964;DHT22;8598;50.508;10.436;2022-12-07T03:32:50;1.90;99.90
16964;DHT22;8598;50.508;10.436;2022-12-07T03:35:22;1.90;99.90
16964;DHT22;8598;50.508;10.436;2022-12-07T03:37:54;1.80;99.90
16964;DHT22;8598;50.508;10.436;2022-12-07T03:40:25;1.90;99.90
16964;DHT22;8598;50.508;10.436;2022-12-07T03:42:54;1.90;99.90
16964;DHT22;8598;50.508;10.436;2022-12-07T03:45:28;1.90;99.90
16964;DHT22;8598;50.508;10.436;2022-12-07T03:48:05;1.90;99.90
16964;DHT22;8598;50.508;10.436;2022-12-07T03:50:38;1.90;99.90
16964;DHT22;8598;50.508;10.436;2022-12-07T03:53:12;1.90;99.90
16964;DHT22;8598;50.508;10.436;2022-12-07T03:55:42;1.70;99.90
16964;DHT22;8598;50.508;10.436;2022-12-07T03:58:13;1.70;99.90
16964;DHT22;8598;50.508;10.436;2022-12-07T04:00:43;1.70;99.90
16964;DHT22;8598;50.508;10.436;2022-12-07T04:03:11;1.70;99.90
16964;DHT22;8598;50.508;10.436;2022-12-07T04:05:38;1.70;99.90
16964;DHT22;8598;50.508;10.436;2022-12-07T04:08:05;1.70;99.90
16964;DHT22;8598;50.508;10.436;2022-12-07T04:10:32;1.70;99.90
16964;DHT22;8598;50.508;10.436;2022-12-07T04:12:59;1.70;99.90
16964;DHT22;8598;50.508;10.436;2022-12-07T04:15:25;1.70;99.90
16964;DHT22;8598;50.508;10.436;2022-12-07T04:17:53;1.70;99.90
16964;DHT22;8598;50.508;10.436;2022-12-07T04:20:21;1.70;99.90
16964;DHT22;8598;50.508;10.436;2022-12-07T04:22:48;1.70;99.90
16964;DHT22;8598;50.508;10.436;2022-12-07T04:25:15;1.70;99.90
16964;DHT22;8598;50.508;10.436;2022-12-07T04:27:41;1.70;99.90
16964;DHT22;8598;50.508;10.436;2022-12-07T04:30:09;1.70;99.90
16964;DHT22;8598;50.508;10.436;2022-12-07T04:32:35;1.80;99.90
16964;DHT22;8598;50.508;10.436;2022-12-07T04:35:04;1.80;99.90
16964;DHT22;8598;50.508;10.436;2022-12-07T04:37:31;1.80;99.90
16964;DHT22;8598;50.508;10.436;2022-12-07T04:39:58;1.90;99.90
16964;DHT22;8598;50.508;10.436;2022-12-07T04:42:25;1.90;99.90
16964;DHT22;8598;50.508;10.436;2022-12-07T04:44:51;1.90;99.90
16964;DHT22;8598;50.508;10.436;2022-12-07T04:47:18;1.90;99.90
16964;DHT22;8598;50.508;10.436;2022-12-07T04:49:45;1.90;99.90
16964;DHT22;8598;50.508;10.436;2022-12-07T04:52:13;2.00;99.90
16964;DHT22;8598;50.508;10.436;2022-12-07T04:54:39;2.00;99.90
16964;DHT22;8598;50.508;10.436;2022-12-07T04:57:06;2.00;99.90
16964;DHT22;8598;50.508;10.436;2022-12-07T04:59:33;1.90;99.90
16964;DHT22;8598;50.508;10.436;2022-12-07T05:02:00;2.00;99.90
16964;DHT22;8598;50.508;10.436;2022-12-07T05:04:26;2.00;99.90
16964;DHT22;8598;50.508;10.436;2022-12-07T05:06:53;2.00;99.90
16964;DHT22;8598;50.508;10.436;2022-12-07T05:09:21;2.10;99.90
16964;DHT22;8598;50.508;10.436;2022-12-07T05:11:48;2.10;99.90
16964;DHT22;8598;50.508;10.436;2022-12-07T05:14:16;2.10;99.90
16964;DHT22;8598;50.508;10.436;2022-12-07T05:16:44;2.10;99.90
16964;DHT22;8598;50.508;10.436;2022-12-07T05:19:11;2.20;99.90
16964;DHT22;8598;50.508;10.436;2022-12-07T05:21:38;2.20;99.90
16964;DHT22;8598;50.508;10.436;2022-12-07T05:24:06;2.20;99.90
16964;DHT22;8598;50.508;10.436;2022-12-07T05:26:34;2.20;99.90
16964;DHT22;8598;50.508;10.436;2022-12-07T05:29:01;2.10;99.90
16964;DHT22;8598;50.508;10.436;2022-12-07T05:31:28;2.20;99.90
16964;DHT22;8598;50.508;10.436;2022-12-07T05:33:54;2.30;99.90
16964;DHT22;8598;50.508;10.436;2022-12-07T05:36:22;2.20;99.90
16964;DHT22;8598;50.508;10.436;2022-12-07T05:38:48;2.20;99.90
16964;DHT22;8598;50.508;10.436;2022-12-07T05:41:17;2.20;99.90
16964;DHT22;8598;50.508;10.436;2022-12-07T05:44:02;2.30;99.90
16964;DHT22;8598;50.508;10.436;2022-12-07T05:46:29;2.30;99.90
16964;DHT22;8598;50.508;10.436;2022-12-07T05:48:56;2.30;99.90
16964;DHT22;8598;50.508;10.436;2022-12-07T05:51:22;2.30;99.90
16964;DHT22;8598;50.508;10.436;2022-12-07T05:53:49;2.40;99.90
16964;DHT22;8598;50.508;10.436;2022-12-07T05:56:16;2.40;99.90
16964;DHT22;8598;50.508;10.436;2022-12-07T05:58:43;2.40;99.90
16964;DHT22;8598;50.508;10.436;2022-12-07T06:01:28;2.40;99.90
16964;DHT22;8598;50.508;10.436;2022-12-07T06:03:55;2.40;99.90
16964;DHT22;8598;50.508;10.436;2022-12-07T06:06:22;2.50;99.90
16964;DHT22;8598;50.508;10.436;2022-12-07T06:08:48;2.50;99.90
16964;DHT22;8598;50.508;10.436;2022-12-07T06:11:15;2.50;99.90
16964;DHT22;8598;50.508;10.436;2022-12-07T06:13:59;2.50;99.90
16964;DHT22;8598;50.508;10.436;2022-12-07T06:16:28;2.50;99.90
16964;DHT22;8598;50.508;10.436;2022-12-07T06:18:54;2.60;99.90
16964;DHT22;8598;50.508;10.436;2022-12-07T06:21:21;2.60;99.90
16964;DHT22;8598;50.508;10.436;2022-12-07T06:23:48;2.60;99.90
16964;DHT22;8598;50.508;10.436;2022-12-07T06:26:15;2.50;99.90
16964;DHT22;8598;50.508;10.436;2022-12-07T06:28:41;2.50;99.90
16964;DHT22;8598;50.508;10.436;2022-12-07T06:31:09;2.60;99.90
16964;DHT22;8598;50.508;10.436;2022-12-07T06:33:37;2.60;99.90
16964;DHT22;8598;50.508;10.436;2022-12-07T06:36:04;2.60;99.90
16964;DHT22;8598;50.508;10.436;2022-12-07T06:38:31;2.60;99.90
16964;DHT22;8598;50.508;10.436;2022-12-07T06:40:58;2.60;99.90
16964;DHT22;8598;50.508;10.436;2022-12-07T06:43:24;2.60;99.90
16964;DHT22;8598;50.508;10.436;2022-12-07T06:45:51;2.50;99.90
16964;DHT22;8598;50.508;10.436;2022-12-07T06:48:18;2.50;99.90
16964;DHT22;8598;50.508;10.436;2022-12-07T06:50:49;2.50;99.90
16964;DHT22;8598;50.508;10.436;2022-12-07T06:53:16;2.60;99.90
16964;DHT22;8598;50.508;10.436;2022-12-07T06:55:43;2.60;99.90
16964;DHT22;8598;50.508;10.436;2022-12-07T06:58:09;2.50;99.90
16964;DHT22;8598;50.508;10.436;2022-12-07T07:00:36;2.50;99.90
16964;DHT22;8598;50.508;10.436;2022-12-07T07:03:03;2.50;99.90
16964;DHT22;8598;50.508;10.436;2022-12-07T07:05:30;2.50;99.90
16964;DHT22;8598;50.508;10.436;2022-12-07T07:07:58;2.60;99.90
16964;DHT22;8598;50.508;10.436;2022-12-07T07:10:25;2.50;99.90
16964;DHT22;8598;50.508;10.436;2022-12-07T07:12:51;2.50;99.90
16964;DHT22;8598;50.508;10.436;2022-12-07T07:15:18;2.40;99.90
16964;DHT22;8598;50.508;10.436;2022-12-07T07:17:45;2.30;99.90
16964;DHT22;8598;50.508;10.436;2022-12-07T07:20:12;2.30;99.90
16964;DHT22;8598;50.508;10.436;2022-12-07T07:22:39;2.30;99.90
16964;DHT22;8598;50.508;10.436;2022-12-07T07:25:08;2.50;99.90
16964;DHT22;8598;50.508;10.436;2022-12-07T07:27:35;2.50;99.90
16964;DHT22;8598;50.508;10.436;2022-12-07T07:30:05;2.60;99.90
16964;DHT22;8598;50.508;10.436;2022-12-07T07:32:32;2.60;99.90
16964;DHT22;8598;50.508;10.436;2022-12-07T07:34:59;2.60;99.90
16964;DHT22;8598;50.508;10.436;2022-12-07T07:37:26;2.60;99.90
16964;DHT22;8598;50.508;10.436;2022-12-07T07:39:52;2.70;99.90
16964;DHT22;8598;50.508;10.436;2022-12-07T07:42:21;2.60;99.90
16964;DHT22;8598;50.508;10.436;2022-12-07T07:44:47;2.70;99.90
16964;DHT22;8598;50.508;10.436;2022-12-07T07:47:14;2.60;99.90
16964;DHT22;8598;50.508;10.436;2022-12-07T07:49:41;2.70;99.90
16964;DHT22;8598;50.508;10.436;2022-12-07T07:52:08;2.70;99.90
16964;DHT22;8598;50.508;10.436;2022-12-07T07:54:36;2.70;99.90
16964;DHT22;8598;50.508;10.436;2022-12-07T07:57:03;2.70;99.90
16964;DHT22;8598;50.508;10.436;2022-12-07T07:59:31;2.80;99.90
16964;DHT22;8598;50.508;10.436;2022-12-07T08:01:58;2.90;99.90
16964;DHT22;8598;50.508;10.436;2022-12-07T08:04:25;2.90;99.90
16964;DHT22;8598;50.508;10.436;2022-12-07T08:06:51;2.90;99.90
16964;DHT22;8598;50.508;10.436;2022-12-07T08:09:18;2.90;99.90
16964;DHT22;8598;50.508;10.436;2022-12-07T08:11:45;2.90;99.90
16964;DHT22;8598;50.508;10.436;2022-12-07T08:14:12;2.90;99.90
16964;DHT22;8598;50.508;10.436;2022-12-07T08:16:40;2.90;99.90
16964;DHT22;8598;50.508;10.436;2022-12-07T08:19:06;2.90;99.90
16964;DHT22;8598;50.508;10.436;2022-12-07T08:21:33;2.90;99.90
16964;DHT22;8598;50.508;10.436;2022-12-07T08:24:00;2.80;99.90
16964;DHT22;8598;50.508;10.436;2022-12-07T08:26:27;2.80;99.90
16964;DHT22;8598;50.508;10.436;2022-12-07T08:28:54;2.70;99.90
16964;DHT22;8598;50.508;10.436;2022-12-07T08:31:20;2.70;99.90
16964;DHT22;8598;50.508;10.436;2022-12-07T08:33:48;2.70;99.90
16964;DHT22;8598;50.508;10.436;2022-12-07T08:36:16;2.70;99.90
16964;DHT22;8598;50.508;10.436;2022-12-07T08:38:43;2.70;99.90
16964;DHT22;8598;50.508;10.436;2022-12-07T08:41:10;2.90;99.90
16964;DHT22;8598;50.508;10.436;2022-12-07T08:43:37;3.00;99.90
16964;DHT22;8598;50.508;10.436;2022-12-07T08:46:08;3.10;99.90
16964;DHT22;8598;50.508;10.436;2022-12-07T08:48:37;3.20;99.90
16964;DHT22;8598;50.508;10.436;2022-12-07T08:51:07;3.40;99.90
16964;DHT22;8598;50.508;10.436;2022-12-07T08:53:34;3.60;99.90
16964;DHT22;8598;50.508;10.436;2022-12-07T08:56:01;3.80;99.90
16964;DHT22;8598;50.508;10.436;2022-12-07T08:58:28;4.00;99.90
16964;DHT22;8598;50.508;10.436;2022-12-07T09:00:55;4.10;99.90
16964;DHT22;8598;50.508;10.436;2022-12-07T09:03:22;4.20;99.90
16964;DHT22;8598;50.508;10.436;2022-12-07T09:05:49;4.20;99.90
16964;DHT22;8598;50.508;10.436;2022-12-07T09:08:17;4.30;99.90
16964;DHT22;8598;50.508;10.436;2022-12-07T09:10:44;4.40;99.90
16964;DHT22;8598;50.508;10.436;2022-12-07T09:13:11;4.40;99.90
16964;DHT22;8598;50.508;10.436;2022-12-07T09:15:38;4.40;99.90
16964;DHT22;8598;50.508;10.436;2022-12-07T09:18:05;4.40;99.90
16964;DHT22;8598;50.508;10.436;2022-12-07T09:20:31;4.50;99.90
16964;DHT22;8598;50.508;10.436;2022-12-07T09:22:58;4.40;99.90
16964;DHT22;8598;50.508;10.436;2022-12-07T09:25:29;4.40;99.90
16964;DHT22;8598;50.508;10.436;2022-12-07T09:27:56;4.30;99.90
16964;DHT22;8598;50.508;10.436;2022-12-07T09:30:23;4.10;99.90
16964;DHT22;8598;50.508;10.436;2022-12-07T09:32:52;4.20;99.90
16964;DHT22;8598;50.508;10.436;2022-12-07T09:35:19;4.20;99.90
16964;DHT22;8598;50.508;10.436;2022-12-07T09:37:46;4.30;99.90
16964;DHT22;8598;50.508;10.436;2022-12-07T09:40:13;4.40;99.90
16964;DHT22;8598;50.508;10.436;2022-12-07T09:42:45;4.40;99.90
16964;DHT22;8598;50.508;10.436;2022-12-07T09:45:17;4.40;99.90
16964;DHT22;8598;50.508;10.436;2022-12-07T09:47:45;4.40;99.90
16964;DHT22;8598;50.508;10.436;2022-12-07T09:50:14;4.50;99.90
16964;DHT22;8598;50.508;10.436;2022-12-07T09:52:43;5.10;99.90
16964;DHT22;8598;50.508;10.436;2022-12-07T09:55:12;4.30;99.90
16964;DHT22;8598;50.508;10.436;2022-12-07T09:57:44;4.10;99.90
16964;DHT22;8598;50.508;10.436;2022-12-07T10:00:13;4.10;99.90
16964;DHT22;8598;50.508;10.436;2022-12-07T10:02:42;4.30;99.90
16964;DHT22;8598;50.508;10.436;2022-12-07T10:05:13;4.30;99.90
16964;DHT22;8598;50.508;10.436;2022-12-07T10:07:41;4.50;99.90
16964;DHT22;8598;50.508;10.436;2022-12-07T10:10:14;4.60;99.90
16964;DHT22;8598;50.508;10.436;2022-12-07T10:13:00;4.50;99.90
16964;DHT22;8598;50.508;10.436;2022-12-07T10:15:46;4.70;99.90
16964;DHT22;8598;50.508;10.436;2022-12-07T10:18:18;4.90;99.90
16964;DHT22;8598;50.508;10.436;2022-12-07T10:20:46;4.90;99.90
16964;DHT22;8598;50.508;10.436;2022-12-07T10:23:14;5.10;99.90
16964;DHT22;8598;50.508;10.436;2022-12-07T10:25:41;5.30;99.90
16964;DHT22;8598;50.508;10.436;2022-12-07T10:28:17;5.30;99.90
16964;DHT22;8598;50.508;10.436;2022-12-07T10:30:55;5.00;99.90
16964;DHT22;8598;50.508;10.436;2022-12-07T10:33:31;4.90;99.90
16964;DHT22;8598;50.508;10.436;2022-12-07T10:35:59;4.90;99.90
16964;DHT22;8598;50.508;10.436;2022-12-07T10:38:27;4.80;99.90
16964;DHT22;8598;50.508;10.436;2022-12-07T10:41:03;4.80;99.90
16964;DHT22;8598;50.508;10.436;2022-12-07T10:43:32;5.00;99.90
16964;DHT22;8598;50.508;10.436;2022-12-07T10:46:54;5.10;99.90
16964;DHT22;8598;50.508;10.436;2022-12-07T10:49:55;5.40;99.90
16964;DHT22;8598;50.508;10.436;2022-12-07T10:52:47;5.40;99.90
16964;DHT22;8598;50.508;10.436;2022-12-07T10:55:23;5.60;99.90
16964;DHT22;8598;50.508;10.436;2022-12-07T10:58:15;5.30;99.90
16964;DHT22;8598;50.508;10.436;2022-12-07T11:00:53;5.30;99.90
16964;DHT22;8598;50.508;10.436;2022-12-07T11:03:30;5.20;99.90
16964;DHT22;8598;50.508;10.436;2022-12-07T11:06:08;5.20;99.90
16964;DHT22;8598;50.508;10.436;2022-12-07T11:08:48;5.10;99.90
16964;DHT22;8598;50.508;10.436;2022-12-07T11:11:22;5.00;99.90
16964;DHT22;8598;50.508;10.436;2022-12-07T11:13:55;5.10;99.90
16964;DHT22;8598;50.508;10.436;2022-12-07T11:16:42;5.10;99.90
16964;DHT22;8598;50.508;10.436;2022-12-07T11:22:09;4.90;99.90
16964;DHT22;8598;50.508;10.436;2022-12-07T11:24:43;5.00;99.90
16964;DHT22;8598;50.508;10.436;2022-12-07T11:27:21;5.00;99.90
16964;DHT22;8598;50.508;10.436;2022-12-07T11:29:59;5.10;99.90
16964;DHT22;8598;50.508;10.436;2022-12-07T11:35:32;5.10;99.90
16964;DHT22;8598;50.508;10.436;2022-12-07T11:38:08;5.10;99.90
16964;DHT22;8598;50.508;10.436;2022-12-07T11:40:36;4.90;99.90
16964;DHT22;8598;50.508;10.436;2022-12-07T11:43:11;4.60;99.90
16964;DHT22;8598;50.508;10.436;2022-12-07T11:45:42;4.70;99.90
16964;DHT22;8598;50.508;10.436;2022-12-07T11:48:15;4.70;99.90
16964;DHT22;8598;50.508;10.436;2022-12-07T11:50:48;4.80;99.90
16964;DHT22;8598;50.508;10.436;2022-12-07T11:53:20;4.90;99.90
16964;DHT22;8598;50.508;10.436;2022-12-07T11:55:52;5.00;99.90
16964;DHT22;8598;50.508;10.436;2022-12-07T11:58:35;5.00;99.90
16964;DHT22;8598;50.508;10.436;2022-12-07T12:01:13;5.10;99.90
16964;DHT22;8598;50.508;10.436;2022-12-07T12:03:44;5.00;99.90
16964;DHT22;8598;50.508;10.436;2022-12-07T12:06:12;4.90;99.90
16964;DHT22;8598;50.508;10.436;2022-12-07T12:08:40;4.80;99.90
16964;DHT22;8598;50.508;10.436;2022-12-07T12:11:20;4.80;99.90
16964;DHT22;8598;50.508;10.436;2022-12-07T12:14:18;4.80;99.90
16964;DHT22;8598;50.508;10.436;2022-12-07T12:19:58;4.80;99.90
16964;DHT22;8598;50.508;10.436;2022-12-07T12:22:32;4.80;99.90
16964;DHT22;8598;50.508;10.436;2022-12-07T12:25:04;4.80;99.90
16964;DHT22;8598;50.508;10.436;2022-12-07T12:27:36;4.80;99.90
16964;DHT22;8598;50.508;10.436;2022-12-07T12:30:06;4.70;99.90
16964;DHT22;8598;50.508;10.436;2022-12-07T12:32:38;4.60;99.90
16964;DHT22;8598;50.508;10.436;2022-12-07T12:35:29;4.70;99.90
16964;DHT22;8598;50.508;10.436;2022-12-07T12:38:24;4.80;99.90
16964;DHT22;8598;50.508;10.436;2022-12-07T12:40:52;4.90;99.90
16964;DHT22;8598;50.508;10.436;2022-12-07T12:43:46;5.10;99.90
16964;DHT22;8598;50.508;10.436;2022-12-07T12:46:52;5.20;99.90
16964;DHT22;8598;50.508;10.436;2022-12-07T12:49:38;5.00;99.90
16964;DHT22;8598;50.508;10.436;2022-12-07T12:55:22;5.20;99.90
16964;DHT22;8598;50.508;10.436;2022-12-07T12:58:22;4.30;99.90
16964;DHT22;8598;50.508;10.436;2022-12-07T13:03:55;4.00;99.90
16964;DHT22;8598;50.508;10.436;2022-12-07T13:06:34;4.00;99.90
16964;DHT22;8598;50.508;10.436;2022-12-07T13:09:01;4.00;99.90
16964;DHT22;8598;50.508;10.436;2022-12-07T13:11:32;4.20;99.90
16964;DHT22;8598;50.508;10.436;2022-12-07T13:17:08;3.90;99.90
16964;DHT22;8598;50.508;10.436;2022-12-07T13:19:59;3.40;99.90
16964;DHT22;8598;50.508;10.436;2022-12-07T13:22:52;3.80;99.90
16964;DHT22;8598;50.508;10.436;2022-12-07T13:25:30;3.80;99.90
16964;DHT22;8598;50.508;10.436;2022-12-07T13:28:02;3.70;99.90
16964;DHT22;8598;50.508;10.436;2022-12-07T13:30:43;3.70;99.90
16964;DHT22;8598;50.508;10.436;2022-12-07T13:33:11;3.70;99.90
16964;DHT22;8598;50.508;10.436;2022-12-07T13:35:38;3.70;99.90
16964;DHT22;8598;50.508;10.436;2022-12-07T13:38:19;3.60;99.90
16964;DHT22;8598;50.508;10.436;2022-12-07T13:41:03;3.70;99.90
16964;DHT22;8598;50.508;10.436;2022-12-07T13:43:43;3.80;99.90
16964;DHT22;8598;50.508;10.436;2022-12-07T13:46:11;3.90;99.90
16964;DHT22;8598;50.508;10.436;2022-12-07T13:48:44;4.00;99.90
16964;DHT22;8598;50.508;10.436;2022-12-07T13:51:18;4.10;99.90
16964;DHT22;8598;50.508;10.436;2022-12-07T13:53:51;4.20;99.90
16964;DHT22;8598;50.508;10.436;2022-12-07T13:56:20;4.30;99.90
16964;DHT22;8598;50.508;10.436;2022-12-07T13:58:48;4.30;99.90
16964;DHT22;8598;50.508;10.436;2022-12-07T14:01:15;4.40;99.90
16964;DHT22;8598;50.508;10.436;2022-12-07T14:03:44;4.40;99.90
16964;DHT22;8598;50.508;10.436;2022-12-07T14:06:17;4.50;99.90
16964;DHT22;8598;50.508;10.436;2022-12-07T14:08:44;4.50;99.90
16964;DHT22;8598;50.508;10.436;2022-12-07T14:11:16;4.70;99.90
16964;DHT22;8598;50.508;10.436;2022-12-07T14:13:57;4.80;99.90
16964;DHT22;8598;50.508;10.436;2022-12-07T14:16:26;4.90;99.90
16964;DHT22;8598;50.508;10.436;2022-12-07T14:18:54;4.90;99.90
16964;DHT22;8598;50.508;10.436;2022-12-07T14:21:23;4.80;99.90
16964;DHT22;8598;50.508;10.436;2022-12-07T14:24:18;4.80;99.90
16964;DHT22;8598;50.508;10.436;2022-12-07T14:26:47;4.70;99.90
16964;DHT22;8598;50.508;10.436;2022-12-07T14:29:37;4.50;99.90
16964;DHT22;8598;50.508;10.436;2022-12-07T14:32:20;4.40;99.90
16964;DHT22;8598;50.508;10.436;2022-12-07T14:34:59;4.20;99.90
16964;DHT22;8598;50.508;10.436;2022-12-07T14:37:30;4.10;99.90
16964;DHT22;8598;50.508;10.436;2022-12-07T14:39:57;3.90;99.90
16964;DHT22;8598;50.508;10.436;2022-12-07T14:42:28;3.80;99.90
16964;DHT22;8598;50.508;10.436;2022-12-07T14:44:57;3.70;99.90
16964;DHT22;8598;50.508;10.436;2022-12-07T14:47:26;3.60;99.90
16964;DHT22;8598;50.508;10.436;2022-12-07T14:49:53;3.50;99.90
16964;DHT22;8598;50.508;10.436;2022-12-07T14:52:23;3.40;99.90
16964;DHT22;8598;50.508;10.436;2022-12-07T14:54:51;3.40;99.90
16964;DHT22;8598;50.508;10.436;2022-12-07T14:57:18;3.40;99.90
16964;DHT22;8598;50.508;10.436;2022-12-07T14:59:45;3.30;99.90
16964;DHT22;8598;50.508;10.436;2022-12-07T15:02:14;3.30;99.90
16964;DHT22;8598;50.508;10.436;2022-12-07T15:04:41;3.30;99.90
16964;DHT22;8598;50.508;10.436;2022-12-07T15:07:12;3.30;99.90
16964;DHT22;8598;50.508;10.436;2022-12-07T15:09:41;3.30;99.90
16964;DHT22;8598;50.508;10.436;2022-12-07T15:12:07;3.30;99.90
16964;DHT22;8598;50.508;10.436;2022-12-07T15:14:34;3.30;99.90
16964;DHT22;8598;50.508;10.436;2022-12-07T15:17:01;3.30;99.90
16964;DHT22;8598;50.508;10.436;2022-12-07T15:19:29;3.30;99.90
16964;DHT22;8598;50.508;10.436;2022-12-07T15:21:56;3.30;99.90
16964;DHT22;8598;50.508;10.436;2022-12-07T15:24:23;3.30;99.90
16964;DHT22;8598;50.508;10.436;2022-12-07T15:26:50;3.30;99.90
16964;DHT22;8598;50.508;10.436;2022-12-07T15:29:17;3.30;99.90
16964;DHT22;8598;50.508;10.436;2022-12-07T15:31:44;3.30;99.90
16964;DHT22;8598;50.508;10.436;2022-12-07T15:34:11;3.20;99.90
16964;DHT22;8598;50.508;10.436;2022-12-07T15:36:39;3.20;99.90
16964;DHT22;8598;50.508;10.436;2022-12-07T15:39:06;3.10;99.90
16964;DHT22;8598;50.508;10.436;2022-12-07T15:41:32;3.10;99.90
16964;DHT22;8598;50.508;10.436;2022-12-07T15:43:59;3.00;99.90
16964;DHT22;8598;50.508;10.436;2022-12-07T15:46:44;3.00;99.90
16964;DHT22;8598;50.508;10.436;2022-12-07T15:49:13;2.90;99.90
16964;DHT22;8598;50.508;10.436;2022-12-07T15:51:42;2.90;99.90
16964;DHT22;8598;50.508;10.436;2022-12-07T15:54:13;2.80;99.90
16964;DHT22;8598;50.508;10.436;2022-12-07T15:56:42;2.80;99.90
16964;DHT22;8598;50.508;10.436;2022-12-07T15:59:09;2.70;99.90
16964;DHT22;8598;50.508;10.436;2022-12-07T16:01:35;2.70;99.90
16964;DHT22;8598;50.508;10.436;2022-12-07T16:04:02;2.70;99.90
16964;DHT22;8598;50.508;10.436;2022-12-07T16:06:29;2.80;99.90
16964;DHT22;8598;50.508;10.436;2022-12-07T16:08:57;2.70;99.90
16964;DHT22;8598;50.508;10.436;2022-12-07T16:11:24;3.40;99.90
16964;DHT22;8598;50.508;10.436;2022-12-07T16:13:51;2.60;99.90
16964;DHT22;8598;50.508;10.436;2022-12-07T16:16:19;2.60;99.90
16964;DHT22;8598;50.508;10.436;2022-12-07T16:18:47;2.60;99.90
16964;DHT22;8598;50.508;10.436;2022-12-07T16:21:15;2.50;99.90
16964;DHT22;8598;50.508;10.436;2022-12-07T16:23:42;2.50;99.90
16964;DHT22;8598;50.508;10.436;2022-12-07T16:26:12;2.40;99.90
16964;DHT22;8598;50.508;10.436;2022-12-07T16:28:39;2.40;99.90
16964;DHT22;8598;50.508;10.436;2022-12-07T16:31:08;2.40;99.90
16964;DHT22;8598;50.508;10.436;2022-12-07T16:33:37;2.40;99.90